aviador You're here:

KMEI Decoded Metar

MERIDIAN/KEY FLD in MS, USA
Report Time2017-08-18 00:58:00
UTC Time2017-08-18 01:07:30
Flight Rules vfr VFR
WindCalm
Visibility9999 m
Phenomena:N/A
Clouds:N/A
Expected CloudBase > 1,200 ft AGL from Temp-Dew spread
CeilingNone
Temp28°C (ISA +14)
Dew Point25°C (84% RH)
Heat Index32.7°C
QNH1016 hPa
Density Alt2,169 ft
Elevation292 ft
Report Wrong Elevation
Raw Report
KMEI 180058Z 00000KT 10SM CLR 28/25 A2999 RMK AO2 SLP151
T02830250=

Extra information for KMEI:More info

Metar Taf Metar & Taf Last 4 Metars F.Rules Stats Wind Profile Meteogram Temp Stats Airport Information Weather charts Add Link Nearby VenuesMetar ALERT Operation Metar Decoded Social comments

AIRNAV info for KMEI